createdAt,value
2022-09-16T00:00:31.093Z,98516.31
2022-09-16T00:01:14.455Z,98510.13
2022-09-16T00:01:46.761Z,98515.09
2022-09-16T00:02:18.965Z,98503.78
2022-09-16T00:02:55.473Z,98516.22
2022-09-16T00:03:27.879Z,98512.69
2022-09-16T00:04:03.429Z,98504.56
2022-09-16T00:04:38.522Z,98500.28
2022-09-16T00:05:10.780Z,98501.41
2022-09-16T00:05:43.599Z,98502.22
2022-09-16T00:06:23.980Z,98496.78
2022-09-16T00:06:55.883Z,98498.44
2022-09-16T00:07:30.031Z,98499.25
2022-09-16T00:08:05.288Z,98495.41
2022-09-16T00:08:40.481Z,98495.09
2022-09-16T00:09:15.378Z,98505.56
2022-09-16T00:09:47.564Z,98493.16
2022-09-16T00:10:20.043Z,98493.16
2022-09-16T00:10:54.780Z,98495.88
2022-09-16T00:11:27.247Z,98502.84
2022-09-16T00:11:59.426Z,98498.59
2022-09-16T00:12:31.745Z,98510.19
2022-09-16T00:13:07.155Z,98504.34
2022-09-16T00:13:39.443Z,98501.16
2022-09-16T00:14:11.721Z,98494.94
2022-09-16T00:14:46.456Z,98503.06
2022-09-16T00:15:19.219Z,98498.78
2022-09-16T00:15:51.583Z,98498.44
2022-09-16T00:16:27.134Z,98496.53
2022-09-16T00:17:02.064Z,98502.41
2022-09-16T00:17:34.902Z,98503.88
2022-09-16T00:18:07.047Z,98497.66
2022-09-16T00:18:41.761Z,98496.88
2022-09-16T00:19:17.213Z,98499.91
2022-09-16T00:19:50.671Z,98501.03
2022-09-16T00:20:25.461Z,98493.69
2022-09-16T00:20:57.608Z,98494.03
2022-09-16T00:21:30.795Z,98514.59
2022-09-16T00:22:05.860Z,98501.41
2022-09-16T00:22:38.265Z,98497.09
2022-09-16T00:23:10.477Z,98500.25
2022-09-16T00:23:42.691Z,98500.59
2022-09-16T00:24:17.529Z,98499.00
2022-09-16T00:24:50.198Z,98506.34
2022-09-16T00:25:22.454Z,98501.25
2022-09-16T00:25:58.447Z,98489.97
2022-09-16T00:26:31.186Z,98495.38
2022-09-16T00:27:03.460Z,98499.69
2022-09-16T00:27:38.391Z,98495.81
2022-09-16T00:28:10.955Z,98495.03
2022-09-16T00:28:43.178Z,98503.63
2022-09-16T00:29:17.973Z,98487.38
2022-09-16T00:29:50.549Z,98497.41
2022-09-16T00:30:22.734Z,98491.19
2022-09-16T00:30:57.537Z,98488.47
2022-09-16T00:31:29.840Z,98494.69
2022-09-16T00:32:02.632Z,98493.13
2022-09-16T00:32:37.505Z,98494.69
2022-09-16T00:33:10.461Z,98502.03
2022-09-16T00:33:42.707Z,98495.03
2022-09-16T00:34:20.156Z,98495.81
2022-09-16T00:34:52.391Z,98498.88
2022-09-16T00:35:24.593Z,98496.97
2022-09-16T00:36:08.997Z,98493.00
2022-09-16T00:36:41.265Z,98492.56
2022-09-16T00:37:13.511Z,98487.47
2022-09-16T00:37:48.245Z,98493.31
2022-09-16T00:38:20.424Z,98493.31
2022-09-16T00:38:55.097Z,98492.88
2022-09-16T00:39:27.400Z,98489.06
2022-09-16T00:40:02.193Z,98490.16
2022-09-16T00:40:34.708Z,98486.34
2022-09-16T00:41:08.059Z,98492.88
2022-09-16T00:41:43.368Z,98494.78
2022-09-16T00:42:15.776Z,98490.16
2022-09-16T00:42:47.951Z,98499.09
2022-09-16T00:43:23.134Z,98501.81
2022-09-16T00:43:58.040Z,98501.81
2022-09-16T00:44:55.865Z,98501.34
2022-09-16T00:45:32.182Z,98498.19
2022-09-16T00:46:05.561Z,98497.38
2022-09-16T00:46:44.213Z,98495.47
2022-09-16T00:47:21.303Z,98517.16
2022-09-16T00:47:58.987Z,98503.59
2022-09-16T00:48:32.854Z,98492.41
2022-09-16T00:49:11.348Z,98507.88
2022-09-16T00:49:49.719Z,98507.44
2022-09-16T00:50:28.952Z,98511.75
2022-09-16T00:51:03.863Z,98524.03
2022-09-16T00:51:40.017Z,98507.75
2022-09-16T00:52:12.922Z,98503.03
2022-09-16T00:52:45.540Z,98505.84
2022-09-16T00:53:23.644Z,98518.28
2022-09-16T00:54:03.281Z,98513.66
2022-09-16T00:54:38.604Z,98513.97
2022-09-16T00:55:18.662Z,98512.06
2022-09-16T00:55:54.561Z,98519.72
2022-09-16T00:56:29.684Z,98520.88
2022-09-16T00:57:06.714Z,98519.28
2022-09-16T00:57:41.343Z,98523.44
2022-09-16T00:58:18.061Z,98523.44
2022-09-16T00:58:56.932Z,98528.84
2022-09-16T00:59:32.146Z,98533.53
2022-09-16T01:00:07.837Z,98525.03
2022-09-16T01:00:43.462Z,98522.31
2022-09-16T01:01:15.827Z,98532.84
2022-09-16T01:01:49.255Z,98530.13
2022-09-16T01:02:26.880Z,98521.53
2022-09-16T01:02:59.203Z,98532.03
2022-09-16T01:03:34.032Z,98523.13
2022-09-16T01:04:16.426Z,98523.13
2022-09-16T01:04:56.613Z,98524.22
2022-09-16T01:05:28.995Z,98524.91
2022-09-16T01:06:04.065Z,98526.50
2022-09-16T01:06:39.613Z,98523.00
2022-09-16T01:07:12.121Z,98520.28
2022-09-16T01:07:48.948Z,98512.47
2022-09-16T01:08:21.139Z,98523.66
2022-09-16T01:08:53.700Z,98516.78
2022-09-16T01:09:30.418Z,98529.22
2022-09-16T01:10:02.692Z,98517.56
2022-09-16T01:10:34.938Z,98519.16
2022-09-16T01:11:09.786Z,98511.81
2022-09-16T01:11:41.943Z,98519.97
2022-09-16T01:12:14.146Z,98519.97
2022-09-16T01:12:52.822Z,98513.38
2022-09-16T01:13:25.075Z,98534.63
2022-09-16T01:14:18.695Z,98521.09
2022-09-16T01:14:53.922Z,98532.13
2022-09-16T01:15:35.683Z,98527.50
2022-09-16T01:16:14.658Z,98528.63
2022-09-16T01:16:58.351Z,98521.81
2022-09-16T01:17:59.033Z,98527.91
2022-09-16T01:18:34.677Z,98530.38
2022-09-16T01:19:17.518Z,98522.69
2022-09-16T01:20:13.654Z,98524.16
2022-09-16T01:21:18.220Z,98538.81
2022-09-16T01:22:03.326Z,98534.19
2022-09-16T01:22:52.912Z,98527.97
2022-09-16T01:23:54.050Z,98528.28
2022-09-16T01:24:52.834Z,98527.84
2022-09-16T01:25:43.134Z,98527.53
2022-09-16T01:26:35.960Z,98534.06
2022-09-16T01:27:23.496Z,98530.25
2022-09-16T01:28:18.138Z,98530.56
2022-09-16T01:29:24.718Z,98530.06
2022-09-16T01:30:18.177Z,98536.31
2022-09-16T01:31:01.726Z,98526.56
2022-09-16T01:31:41.498Z,98539.81
2022-09-16T01:32:19.635Z,98543.31
2022-09-16T01:33:05.158Z,98539.81
2022-09-16T01:33:51.170Z,98536.31
2022-09-16T01:34:38.798Z,98535.81
2022-09-16T01:35:23.021Z,98541.25
2022-09-16T01:36:11.297Z,98540.44
2022-09-16T01:36:56.099Z,98538.84
2022-09-16T01:37:37.053Z,98541.56
2022-09-16T01:38:23.017Z,98525.31
2022-09-16T01:39:11.020Z,98531.41
2022-09-16T01:39:49.918Z,98536.34
2022-09-16T01:40:32.282Z,98537.13
2022-09-16T01:41:12.384Z,98541.75
2022-09-16T01:42:01.478Z,98532.38
2022-09-16T01:42:40.106Z,98536.88
2022-09-16T01:43:22.980Z,98536.09
2022-09-16T01:44:02.449Z,98539.13
2022-09-16T01:44:52.682Z,98538.19
2022-09-16T01:45:31.223Z,98536.94
2022-09-16T01:46:17.794Z,98539.19
2022-09-16T01:47:02.530Z,98537.25
2022-09-16T01:47:37.910Z,98548.09
2022-09-16T01:48:23.435Z,98539.97
2022-09-16T01:49:03.956Z,98542.69
2022-09-16T01:49:44.001Z,98548.91
2022-09-16T01:50:20.974Z,98551.75
2022-09-16T01:51:02.532Z,98550.28
2022-09-16T01:51:42.525Z,98551.06
2022-09-16T01:52:24.103Z,98554.25
2022-09-16T01:53:09.660Z,98567.44
2022-09-16T01:53:49.601Z,98567.44
2022-09-16T01:54:28.175Z,98565.53
2022-09-16T01:55:06.805Z,98559.81
2022-09-16T01:55:43.163Z,98562.19
2022-09-16T01:56:23.270Z,98571.25
2022-09-16T01:57:05.787Z,98559.59
2022-09-16T01:57:46.377Z,98563.44
2022-09-16T01:58:25.525Z,98570.13
2022-09-16T01:59:05.703Z,98568.97
2022-09-16T01:59:42.489Z,98565.81
2022-09-16T02:00:15.539Z,98572.16
2022-09-16T02:00:52.760Z,98572.63
2022-09-16T02:01:36.289Z,98555.13
2022-09-16T02:02:17.064Z,98560.53
2022-09-16T02:02:56.843Z,98564.03
2022-09-16T02:03:34.158Z,98569.13
2022-09-16T02:04:15.450Z,98580.75
2022-09-16T02:04:52.942Z,98576.47
2022-09-16T02:05:28.103Z,98579.97
2022-09-16T02:06:08.307Z,98572.63
2022-09-16T02:06:44.029Z,98569.91
2022-09-16T02:07:20.775Z,98568.34
2022-09-16T02:08:02.192Z,98555.28
2022-09-16T02:08:40.025Z,98553.66
2022-09-16T02:09:18.835Z,98545.22
2022-09-16T02:09:57.242Z,98547.94
2022-09-16T02:10:33.290Z,98547.63
2022-09-16T02:11:09.228Z,98541.84
2022-09-16T02:11:47.375Z,98533.72
2022-09-16T02:12:24.853Z,98539.13
2022-09-16T02:13:02.252Z,98539.94
2022-09-16T02:13:39.015Z,98544.91
2022-09-16T02:14:16.346Z,98546.50
2022-09-16T02:14:51.143Z,98539.13
2022-09-16T02:15:29.130Z,98551.56
2022-09-16T02:16:07.926Z,98542.63
2022-09-16T02:16:49.777Z,98544.56
2022-09-16T02:17:29.258Z,98548.41
2022-09-16T02:18:05.301Z,98543.00
2022-09-16T02:18:41.400Z,98543.31
2022-09-16T02:19:22.737Z,98546.94
2022-09-16T02:19:58.046Z,98540.44
2022-09-16T02:20:32.624Z,98546.19
2022-09-16T02:21:10.094Z,98545.88
2022-09-16T02:21:45.824Z,98542.38
2022-09-16T02:22:25.394Z,98544.28
2022-09-16T02:23:05.264Z,98534.09
2022-09-16T02:23:41.879Z,98541.44
2022-09-16T02:24:18.088Z,98545.75
2022-09-16T02:24:54.940Z,98545.75
2022-09-16T02:25:29.858Z,98539.53
2022-09-16T02:26:05.655Z,98538.72
2022-09-16T02:26:45.445Z,98544.16
2022-09-16T02:27:21.559Z,98546.38
2022-09-16T02:27:54.655Z,98540.97
2022-09-16T02:28:34.011Z,98544.47
2022-09-16T02:29:12.448Z,98552.59
2022-09-16T02:29:48.992Z,98556.09
2022-09-16T02:30:25.990Z,98554.19
2022-09-16T02:31:02.187Z,98554.97
2022-09-16T02:31:38.053Z,98562.00
2022-09-16T02:32:17.844Z,98563.13
2022-09-16T02:32:55.701Z,98559.13
2022-09-16T02:33:32.110Z,98557.22
2022-09-16T02:34:12.550Z,98559.13
2022-09-16T02:34:45.784Z,98556.97
2022-09-16T02:35:20.838Z,98555.84
2022-09-16T02:35:58.311Z,98562.81
2022-09-16T02:36:32.587Z,98553.59
2022-09-16T02:37:08.631Z,98559.00
2022-09-16T02:37:48.547Z,98552.47
2022-09-16T02:38:25.190Z,98552.78
2022-09-16T02:39:04.227Z,98555.84
2022-09-16T02:39:40.965Z,98553.13
2022-09-16T02:40:17.366Z,98559.31
2022-09-16T02:40:55.675Z,98556.97
2022-09-16T02:41:28.094Z,98560.00
2022-09-16T02:42:00.853Z,98568.25
2022-09-16T02:42:36.419Z,98562.03
2022-09-16T02:43:09.415Z,98558.56
2022-09-16T02:43:42.355Z,98557.75
2022-09-16T02:44:18.382Z,98549.63
2022-09-16T02:44:50.834Z,98556.63
2022-09-16T02:45:29.238Z,98553.13
2022-09-16T02:46:12.110Z,98559.31
2022-09-16T02:46:55.728Z,98558.56
2022-09-16T02:47:37.254Z,98565.09
2022-09-16T02:48:20.265Z,98567.81
2022-09-16T02:48:59.000Z,98559.66
2022-09-16T02:49:40.995Z,98558.88
2022-09-16T02:50:20.361Z,98568.44
2022-09-16T02:51:00.320Z,98556.34
2022-09-16T02:51:43.462Z,98564.63
2022-09-16T02:52:24.377Z,98559.53
2022-09-16T02:53:00.951Z,98561.47
2022-09-16T02:53:45.783Z,98558.75
2022-09-16T02:54:22.649Z,98563.38
2022-09-16T02:55:03.716Z,98563.03
2022-09-16T02:55:49.070Z,98561.47
2022-09-16T02:56:26.322Z,98561.47
2022-09-16T02:56:59.197Z,98560.66
2022-09-16T02:57:34.582Z,98561.47
2022-09-16T02:58:07.648Z,98560.31
2022-09-16T02:58:39.928Z,98559.19
2022-09-16T02:59:15.776Z,98560.31
2022-09-16T02:59:48.106Z,98562.69
2022-09-16T03:00:20.988Z,98552.34
2022-09-16T03:00:59.159Z,98553.13
2022-09-16T03:01:34.466Z,98559.31
2022-09-16T03:02:09.358Z,98563.97
2022-09-16T03:02:44.893Z,98556.63
2022-09-16T03:03:17.885Z,98562.81
2022-09-16T03:03:53.090Z,98562.81
2022-09-16T03:04:25.274Z,98568.25
2022-09-16T03:04:57.498Z,98567.13
2022-09-16T03:05:32.670Z,98576.06
2022-09-16T03:06:18.687Z,98557.75
2022-09-16T03:06:54.395Z,98569.72
2022-09-16T03:07:27.568Z,98567.00
2022-09-16T03:08:04.168Z,98556.84
2022-09-16T03:08:38.105Z,98563.25
2022-09-16T03:09:15.176Z,98561.50
2022-09-16T03:09:49.831Z,98563.63
2022-09-16T03:10:24.325Z,98563.31
2022-09-16T03:11:05.921Z,98567.97
2022-09-16T03:12:05.449Z,98578.84
2022-09-16T03:12:53.092Z,98576.31
2022-09-16T03:13:32.593Z,98574.25
2022-09-16T03:14:20.571Z,98565.19
2022-09-16T03:15:26.468Z,98574.28
2022-09-16T03:16:08.102Z,98575.63
2022-09-16T03:16:50.745Z,98579.09
2022-09-16T03:17:44.100Z,98585.16
2022-09-16T03:18:36.448Z,98587.41
2022-09-16T03:19:19.192Z,98572.28
2022-09-16T03:20:05.425Z,98574.50
2022-09-16T03:20:46.714Z,98576.09
2022-09-16T03:21:31.786Z,98569.91
2022-09-16T03:22:11.120Z,98571.00
2022-09-16T03:22:51.534Z,98574.50
2022-09-16T03:23:33.110Z,98579.66
2022-09-16T03:24:11.068Z,98580.75
2022-09-16T03:24:57.156Z,98580.75
2022-09-16T03:25:43.532Z,98581.88
2022-09-16T03:26:22.871Z,98580.31
2022-09-16T03:27:04.855Z,98585.72
2022-09-16T03:27:41.177Z,98582.53
2022-09-16T03:28:18.730Z,98581.72
2022-09-16T03:29:02.588Z,98584.75
2022-09-16T03:29:45.183Z,98580.78
2022-09-16T03:30:19.372Z,98583.81
2022-09-16T03:31:03.369Z,98586.50
2022-09-16T03:31:40.683Z,98580.97
2022-09-16T03:32:21.151Z,98581.75
2022-09-16T03:33:01.190Z,98583.34
2022-09-16T03:33:41.221Z,98575.88
2022-09-16T03:34:20.451Z,98587.16
2022-09-16T03:34:57.430Z,98578.59
2022-09-16T03:35:34.114Z,98578.59
2022-09-16T03:36:14.411Z,98585.13
2022-09-16T03:36:51.753Z,98571.91
2022-09-16T03:37:27.491Z,98585.13
2022-09-16T03:38:03.987Z,98574.28
2022-09-16T03:38:38.864Z,98579.72
2022-09-16T03:39:12.711Z,98577.00
2022-09-16T03:39:53.625Z,98573.81
2022-09-16T03:40:29.873Z,98566.81
2022-09-16T03:41:03.235Z,98566.81
2022-09-16T03:41:38.538Z,98563.00
2022-09-16T03:42:12.619Z,98575.41
2022-09-16T03:42:45.494Z,98560.78
2022-09-16T03:43:20.425Z,98566.63
2022-09-16T03:43:53.793Z,98565.53
2022-09-16T03:44:32.291Z,98567.56
2022-09-16T03:45:07.650Z,98565.66
2022-09-16T03:45:40.901Z,98566.16
2022-09-16T03:46:15.353Z,98564.25
2022-09-16T03:46:50.428Z,98559.94
2022-09-16T03:47:22.968Z,98555.31
2022-09-16T03:47:55.139Z,98558.81
2022-09-16T03:48:29.920Z,98559.28
2022-09-16T03:49:05.033Z,98558.47
2022-09-16T03:49:37.997Z,98557.69
2022-09-16T03:50:14.329Z,98555.47
2022-09-16T03:50:46.407Z,98554.34
2022-09-16T03:51:18.827Z,98557.06
2022-09-16T03:51:51.037Z,98554.81
2022-09-16T03:52:25.959Z,98551.00
2022-09-16T03:52:58.040Z,98556.53
2022-09-16T03:53:30.372Z,98547.31
2022-09-16T03:54:05.043Z,98555.13
2022-09-16T03:54:38.044Z,98551.28
2022-09-16T03:55:11.114Z,98543.63
2022-09-16T03:55:45.822Z,98554.44
2022-09-16T03:56:18.165Z,98552.22
2022-09-16T03:56:50.477Z,98546.03
2022-09-16T03:57:25.390Z,98553.78
2022-09-16T03:57:57.511Z,98564.16
2022-09-16T03:58:29.637Z,98556.34
2022-09-16T03:59:04.291Z,98557.47
2022-09-16T03:59:36.412Z,98558.13
2022-09-16T04:00:10.581Z,98559.25
2022-09-16T04:00:53.896Z,98565.78
2022-09-16T04:01:25.772Z,98557.69
2022-09-16T04:01:58.094Z,98559.94
2022-09-16T04:02:32.885Z,98561.53
2022-09-16T04:03:05.152Z,98564.25
2022-09-16T04:03:37.620Z,98560.75
2022-09-16T04:04:15.319Z,98566.47
2022-09-16T04:04:47.392Z,98564.88
2022-09-16T04:05:19.484Z,98563.31
2022-09-16T04:05:55.889Z,98566.78
2022-09-16T04:06:28.028Z,98573.78
2022-09-16T04:07:02.750Z,98562.97
2022-09-16T04:07:35.676Z,98562.97
2022-09-16T04:08:07.800Z,98568.06
2022-09-16T04:08:44.484Z,98567.75
2022-09-16T04:09:16.977Z,98559.94
2022-09-16T04:09:49.058Z,98568.50
2022-09-16T04:10:23.878Z,98570.91
2022-09-16T04:10:56.158Z,98562.00
2022-09-16T04:11:29.888Z,98562.47
2022-09-16T04:12:05.609Z,98557.06
2022-09-16T04:12:37.655Z,98561.69
2022-09-16T04:13:09.951Z,98558.66
2022-09-16T04:13:44.811Z,98562.94
2022-09-16T04:14:16.958Z,98557.50
2022-09-16T04:14:49.090Z,98561.34
2022-09-16T04:15:23.841Z,98558.66
2022-09-16T04:15:55.964Z,98559.41
2022-09-16T04:16:28.416Z,98565.63
2022-09-16T04:17:03.593Z,98565.63
2022-09-16T04:17:35.676Z,98564.84
2022-09-16T04:18:07.798Z,98571.84
2022-09-16T04:18:42.441Z,98578.84
2022-09-16T04:19:17.144Z,98575.34
2022-09-16T04:19:49.205Z,98579.66
2022-09-16T04:20:23.991Z,98584.75
2022-09-16T04:20:57.162Z,98586.66
2022-09-16T04:21:29.540Z,98587.44
2022-09-16T04:22:04.188Z,98588.22
2022-09-16T04:22:36.413Z,98594.44
2022-09-16T04:23:09.054Z,98593.31
2022-09-16T04:23:43.914Z,98592.19
2022-09-16T04:24:16.133Z,98590.75
2022-09-16T04:24:50.883Z,98586.94
2022-09-16T04:25:23.045Z,98599.03
2022-09-16T04:25:55.835Z,98595.19
2022-09-16T04:26:30.542Z,98597.56
2022-09-16T04:27:02.618Z,98600.28
2022-09-16T04:27:34.726Z,98597.25
2022-09-16T04:28:07.654Z,98598.81
2022-09-16T04:28:42.326Z,98599.63
2022-09-16T04:29:14.828Z,98602.34
2022-09-16T04:29:46.950Z,98599.63
2022-09-16T04:30:21.613Z,98605.03
2022-09-16T04:30:54.009Z,98597.25
2022-09-16T04:31:26.341Z,98600.75
2022-09-16T04:32:01.479Z,98591.50
2022-09-16T04:32:33.572Z,98598.50
2022-09-16T04:33:05.715Z,98587.69
2022-09-16T04:33:41.105Z,98595.50
2022-09-16T04:34:13.548Z,98597.41
2022-09-16T04:34:51.246Z,98595.16
2022-09-16T04:35:25.209Z,98592.00
2022-09-16T04:36:03.562Z,98594.34
2022-09-16T04:36:38.212Z,98601.38
2022-09-16T04:37:10.374Z,98600.56
2022-09-16T04:37:42.473Z,98601.38
2022-09-16T04:38:17.212Z,98596.28
2022-09-16T04:38:49.795Z,98603.28
2022-09-16T04:39:22.228Z,98603.28
2022-09-16T04:39:59.845Z,98607.13
2022-09-16T04:40:34.547Z,98605.03
2022-09-16T04:41:08.224Z,98607.75
2022-09-16T04:41:42.907Z,98611.56
2022-09-16T04:42:14.975Z,98615.88
2022-09-16T04:42:49.384Z,98619.06
2022-09-16T04:43:24.054Z,98611.56
2022-09-16T04:43:58.069Z,98617.78
2022-09-16T04:44:30.399Z,98615.88
2022-09-16T04:45:05.237Z,98616.66
2022-09-16T04:45:37.307Z,98617.47
2022-09-16T04:46:10.987Z,98619.06
2022-09-16T04:46:45.665Z,98617.16
2022-09-16T04:47:17.783Z,98620.66
2022-09-16T04:47:56.261Z,98621.75
2022-09-16T04:48:31.738Z,98615.56
2022-09-16T04:49:04.046Z,98611.72
2022-09-16T04:49:36.153Z,98624.78
2022-09-16T04:50:14.055Z,98608.53
2022-09-16T04:50:46.122Z,98617.78
2022-09-16T04:51:19.893Z,98610.81
2022-09-16T04:51:54.774Z,98608.84
2022-09-16T04:52:26.865Z,98618.56
2022-09-16T04:52:59.096Z,98629.41
2022-09-16T04:53:33.959Z,98618.25
2022-09-16T04:54:06.158Z,98619.38
2022-09-16T04:54:40.872Z,98624.78
2022-09-16T04:55:12.941Z,98624.00
2022-09-16T04:55:45.237Z,98624.00
2022-09-16T04:56:21.719Z,98633.22
2022-09-16T04:56:53.780Z,98622.41
2022-09-16T04:57:25.858Z,98630.19
2022-09-16T04:58:02.317Z,98621.28
2022-09-16T04:58:34.672Z,98627.50
2022-09-16T04:59:07.144Z,98622.06
2022-09-16T04:59:39.290Z,98617.47
2022-09-16T05:00:15.186Z,98629.88
2022-09-16T05:00:47.440Z,98619.06
2022-09-16T05:01:21.914Z,98618.72
2022-09-16T05:01:57.300Z,98630.34
2022-09-16T05:02:30.320Z,98629.53
2022-09-16T05:03:02.490Z,98631.13
2022-09-16T05:03:34.709Z,98629.22
2022-09-16T05:04:10.453Z,98617.59
2022-09-16T05:04:42.672Z,98627.63
2022-09-16T05:05:17.487Z,98634.63
2022-09-16T05:05:52.230Z,98631.13
2022-09-16T05:06:26.611Z,98625.72
2022-09-16T05:06:58.732Z,98617.59
2022-09-16T05:07:33.482Z,98626.22
2022-09-16T05:08:05.730Z,98625.88
2022-09-16T05:08:38.257Z,98632.88
2022-09-16T05:09:13.719Z,98623.63
2022-09-16T05:09:46.290Z,98631.75
2022-09-16T05:10:18.494Z,98632.56
2022-09-16T05:10:50.567Z,98631.75
2022-09-16T05:11:28.795Z,98629.06
2022-09-16T05:12:01.172Z,98625.88
2022-09-16T05:12:33.303Z,98630.16
2022-09-16T05:13:07.948Z,98629.06
2022-09-16T05:13:40.238Z,98636.06
2022-09-16T05:14:15.976Z,98642.28
2022-09-16T05:14:50.649Z,98633.66
2022-09-16T05:15:22.829Z,98639.88
2022-09-16T05:15:54.977Z,98629.84
2022-09-16T05:16:30.516Z,98630.66
2022-09-16T05:17:02.771Z,98630.97
2022-09-16T05:17:50.992Z,98625.22
2022-09-16T05:18:23.814Z,98636.84
2022-09-16T05:18:57.502Z,98641.94
2022-09-16T05:19:32.224Z,98641.31
2022-09-16T05:20:04.897Z,98647.50
2022-09-16T05:20:39.616Z,98640.66
2022-09-16T05:21:18.827Z,98645.41
2022-09-16T05:21:51.135Z,98643.16
2022-09-16T05:22:23.578Z,98644.28
2022-09-16T05:22:58.252Z,98648.59
2022-09-16T05:23:30.366Z,98644.78
2022-09-16T05:24:04.296Z,98635.06
2022-09-16T05:24:39.241Z,98642.06
2022-09-16T05:25:11.651Z,98640.91
2022-09-16T05:25:43.718Z,98630.88
2022-09-16T05:26:20.743Z,98630.56
2022-09-16T05:26:52.877Z,98632.47
2022-09-16T05:27:28.095Z,98630.25
2022-09-16T05:28:02.940Z,98628.00
2022-09-16T05:28:35.541Z,98631.19
2022-09-16T05:29:13.683Z,98630.84
2022-09-16T05:29:45.768Z,98631.19
2022-09-16T05:30:20.676Z,98640.09
2022-09-16T05:30:57.438Z,98639.31
2022-09-16T05:31:31.754Z,98642.81
2022-09-16T05:32:03.980Z,98640.56
2022-09-16T05:32:38.702Z,98631.97
2022-09-16T05:33:10.847Z,98638.66
2022-09-16T05:33:45.052Z,98647.56
2022-09-16T05:34:21.750Z,98640.25
2022-09-16T05:34:54.057Z,98638.34
2022-09-16T05:35:26.131Z,98635.28
2022-09-16T05:36:10.100Z,98637.19
2022-09-16T05:36:43.968Z,98639.13
2022-09-16T05:37:18.699Z,98639.91
2022-09-16T05:37:50.958Z,98639.91
2022-09-16T05:38:23.015Z,98634.47
2022-09-16T05:39:22.138Z,98638.47
2022-09-16T05:39:50.298Z,98645.31
2022-09-16T05:40:27.302Z,98642.59
2022-09-16T05:40:59.467Z,98642.59
2022-09-16T05:41:31.566Z,98644.19
2022-09-16T05:42:06.540Z,98640.69
2022-09-16T05:42:38.641Z,98647.72
2022-09-16T05:43:10.721Z,98638.47
2022-09-16T05:43:45.461Z,98643.09
2022-09-16T05:44:17.542Z,98647.03
2022-09-16T05:44:49.594Z,98636.22
2022-09-16T05:45:28.773Z,98638.16
2022-09-16T05:46:05.209Z,98638.16
2022-09-16T05:46:40.704Z,98646.28
2022-09-16T05:47:12.798Z,98641.97
2022-09-16T05:47:47.954Z,98650.56
2022-09-16T05:48:23.690Z,98645.94
2022-09-16T05:48:56.523Z,98633.97
2022-09-16T05:49:28.685Z,98632.06
2022-09-16T05:50:03.328Z,98644.94
2022-09-16T05:50:35.399Z,98644.94
2022-09-16T05:51:18.682Z,98650.06
2022-09-16T05:51:53.519Z,98646.06
2022-09-16T05:52:29.564Z,98638.41
2022-09-16T05:53:01.803Z,98650.50
2022-09-16T05:53:35.122Z,98641.25
2022-09-16T05:54:10.779Z,98645.25
2022-09-16T05:54:42.850Z,98642.53
2022-09-16T05:55:17.537Z,98645.38
2022-09-16T05:55:56.765Z,98645.50
2022-09-16T05:56:32.882Z,98655.25
2022-09-16T05:57:07.127Z,98646.00
2022-09-16T05:57:39.334Z,98648.03
2022-09-16T05:58:14.004Z,98645.78
2022-09-16T05:58:46.773Z,98647.41
2022-09-16T05:59:23.663Z,98651.03
2022-09-16T05:59:55.739Z,98646.09
2022-09-16T06:00:27.793Z,98658.97
2022-09-16T06:01:02.917Z,98642.72
2022-09-16T06:01:36.364Z,98655.97
2022-09-16T06:02:12.985Z,98655.59
2022-09-16T06:02:45.214Z,98655.28
2022-09-16T06:03:17.386Z,98653.38
2022-09-16T06:03:55.069Z,98657.69
2022-09-16T06:04:27.292Z,98653.06
2022-09-16T06:04:59.746Z,98647.28
2022-09-16T06:05:34.537Z,98659.41
2022-09-16T06:06:12.967Z,98667.53
2022-09-16T06:06:49.042Z,98656.69
2022-09-16T06:07:21.268Z,98653.97
2022-09-16T06:07:56.773Z,98648.44
2022-09-16T06:08:32.654Z,98652.88
2022-09-16T06:09:08.123Z,98663.38
2022-09-16T06:09:42.836Z,98656.81
2022-09-16T06:10:15.116Z,98655.72
2022-09-16T06:10:47.179Z,98662.38
2022-09-16T06:11:22.228Z,98657.75
2022-09-16T06:11:59.427Z,98656.94
2022-09-16T06:12:36.542Z,98656.16
2022-09-16T06:13:09.033Z,98653.13
2022-09-16T06:13:41.883Z,98652.31
2022-09-16T06:14:18.342Z,98655.50
2022-09-16T06:14:50.490Z,98651.66
2022-09-16T06:15:22.766Z,98650.09
2022-09-16T06:15:57.822Z,98645.78
2022-09-16T06:16:33.009Z,98639.56
2022-09-16T06:17:05.076Z,98647.38
2022-09-16T06:17:39.754Z,98649.41
2022-09-16T06:18:16.006Z,98651.66
2022-09-16T06:18:48.083Z,98652.44
2022-09-16T06:19:22.830Z,98651.34
2022-09-16T06:19:54.944Z,98654.53
2022-09-16T06:20:27.091Z,98652.59
2022-09-16T06:21:05.047Z,98654.19
2022-09-16T06:21:40.292Z,98649.09
2022-09-16T06:22:14.942Z,98649.88
2022-09-16T06:22:47.157Z,98651.47
2022-09-16T06:23:20.134Z,98649.56
2022-09-16T06:23:55.308Z,98654.19
2022-09-16T06:24:27.614Z,98659.28
2022-09-16T06:25:02.378Z,98658.97
2022-09-16T06:25:34.430Z,98664.38
2022-09-16T06:26:08.556Z,98656.25
2022-09-16T06:26:45.232Z,98661.31
2022-09-16T06:27:17.467Z,98660.53
2022-09-16T06:27:52.263Z,98662.13
2022-09-16T06:28:24.437Z,98661.00
2022-09-16T06:28:56.545Z,98654.47
2022-09-16T06:29:31.243Z,98646.31
2022-09-16T06:30:04.186Z,98659.09
2022-09-16T06:30:36.433Z,98656.38
2022-09-16T06:31:14.797Z,98655.56
2022-09-16T06:31:46.958Z,98656.38
2022-09-16T06:32:21.585Z,98662.59
2022-09-16T06:32:53.699Z,98660.19
2022-09-16T06:33:25.755Z,98665.31
2022-09-16T06:34:00.952Z,98664.16
2022-09-16T06:34:33.013Z,98658.72
2022-09-16T06:35:05.821Z,98663.84
2022-09-16T06:35:40.654Z,98672.09
2022-09-16T06:36:14.502Z,98670.66
2022-09-16T06:36:52.498Z,98670.47
2022-09-16T06:37:24.584Z,98667.41
2022-09-16T06:37:56.766Z,98669.91
2022-09-16T06:38:31.869Z,98667.69
2022-09-16T06:39:04.251Z,98677.06
2022-09-16T06:39:39.526Z,98677.84
2022-09-16T06:40:11.778Z,98675.63
2022-09-16T06:40:44.061Z,98674.94
2022-09-16T06:41:20.321Z,98664.88
2022-09-16T06:41:52.378Z,98666.47
2022-09-16T06:42:30.935Z,98668.84
2022-09-16T06:43:08.470Z,98662.81
2022-09-16T06:43:40.774Z,98674.16
2022-09-16T06:44:15.458Z,98667.59
2022-09-16T06:44:47.550Z,98663.41
2022-09-16T06:45:19.683Z,98677.47
2022-09-16T06:45:54.384Z,98671.69
2022-09-16T06:46:28.409Z,98666.59
2022-09-16T06:47:03.237Z,98669.31
2022-09-16T06:47:35.961Z,98673.63
2022-09-16T06:48:08.025Z,98673.28
2022-09-16T06:48:43.780Z,98675.97
2022-09-16T06:49:15.827Z,98674.88
2022-09-16T06:49:47.881Z,98674.88
2022-09-16T06:50:22.584Z,98674.53
2022-09-16T06:51:01.202Z,98679.97
2022-09-16T06:51:35.917Z,98678.69
2022-09-16T06:52:11.861Z,98687.63
2022-09-16T06:52:46.549Z,98683.81
2022-09-16T06:53:18.721Z,98687.63
2022-09-16T06:53:52.145Z,98683.31
2022-09-16T06:54:27.469Z,98680.16
2022-09-16T06:54:59.549Z,98672.81
2022-09-16T06:55:31.814Z,98691.47
2022-09-16T06:56:11.015Z,98690.81
2022-09-16T06:56:43.113Z,98687.63
2022-09-16T06:57:15.258Z,98690.03
2022-09-16T06:57:49.884Z,98687.31
2022-09-16T06:58:22.039Z,98687.63
2022-09-16T06:58:58.004Z,98693.84
2022-09-16T06:59:30.565Z,98706.50
2022-09-16T07:00:06.182Z,98700.28
2022-09-16T07:00:38.394Z,98696.78
2022-09-16T07:01:13.080Z,98689.44
2022-09-16T07:01:47.821Z,98698.81
2022-09-16T07:02:21.144Z,98693.38
2022-09-16T07:02:53.222Z,98706.63
2022-09-16T07:03:28.150Z,98689.22
2022-09-16T07:04:05.484Z,98702.00